createdAt,value
2022-08-03T05:34:15.156Z,48.28
2022-08-03T05:37:18.201Z,42.80
2022-08-03T05:40:21.177Z,42.10
2022-08-03T05:43:24.109Z,46.47
2022-08-03T05:46:26.793Z,42.53
2022-08-03T05:49:29.710Z,42.45
2022-08-03T05:52:32.360Z,38.08
2022-08-03T05:55:35.420Z,40.97
2022-08-03T05:58:38.205Z,45.60
2022-08-03T06:01:41.184Z,42.03
2022-08-03T06:04:44.132Z,74.55
2022-08-03T06:07:47.146Z,45.03
2022-08-03T06:10:50.790Z,53.42
2022-08-03T06:13:53.497Z,60.15
2022-08-03T06:16:56.489Z,44.72
2022-08-03T06:19:59.372Z,51.80
2022-08-03T06:23:23.845Z,60.33
2022-08-03T06:26:46.156Z,91.03
2022-08-03T06:29:57.826Z,61.13
2022-08-03T06:33:00.719Z,49.88
2022-08-03T06:36:04.066Z,53.53
2022-08-03T06:39:08.147Z,49.05
2022-08-03T06:42:11.903Z,51.25
2022-08-03T06:45:14.755Z,59.67
2022-08-03T06:48:17.854Z,53.65
2022-08-03T06:51:20.544Z,68.10
2022-08-03T06:54:24.509Z,58.20
2022-08-03T06:57:27.454Z,56.55
2022-08-03T07:00:32.091Z,54.35
2022-08-03T07:03:34.826Z,41.45
2022-08-03T07:06:39.192Z,36.13
2022-08-03T07:09:41.944Z,48.38
2022-08-03T07:13:00.581Z,100.32
2022-08-03T07:16:03.352Z,46.22
2022-08-03T07:19:06.369Z,42.42
2022-08-03T07:22:09.173Z,39.25
2022-08-03T07:25:12.169Z,40.88
2022-08-03T07:28:15.439Z,54.03
2022-08-03T07:31:18.842Z,50.28
2022-08-03T07:34:21.672Z,58.40
2022-08-03T07:37:24.780Z,40.10
2022-08-03T07:40:28.678Z,44.00
2022-08-03T07:43:35.046Z,45.28
2022-08-03T07:46:37.873Z,42.95
2022-08-03T07:49:42.655Z,46.45
2022-08-03T07:52:48.200Z,51.37
2022-08-03T07:55:51.423Z,72.12
2022-08-03T07:58:54.923Z,52.00
2022-08-03T08:01:57.903Z,47.83
2022-08-03T08:05:05.353Z,74.03
2022-08-03T08:08:08.609Z,61.40
2022-08-03T08:11:11.680Z,53.60
2022-08-03T08:14:14.431Z,95.25
2022-08-03T08:17:17.405Z,47.03
2022-08-03T08:20:27.950Z,50.78
2022-08-03T08:23:42.907Z,44.17
2022-08-03T08:26:46.910Z,54.20
2022-08-03T08:29:54.573Z,62.72
2022-08-03T08:33:00.390Z,62.10
2022-08-03T08:36:03.578Z,65.85
2022-08-03T08:39:06.268Z,69.45
2022-08-03T08:42:10.557Z,71.22
2022-08-03T08:45:15.611Z,162.45
2022-08-03T08:48:24.664Z,95.32
2022-08-03T08:51:50.981Z,64.55
2022-08-03T08:55:04.008Z,69.45
2022-08-03T08:58:09.606Z,63.00
2022-08-03T09:01:12.739Z,72.53
2022-08-03T09:04:15.990Z,56.30
2022-08-03T09:07:20.391Z,59.95
2022-08-03T09:10:23.672Z,60.90
2022-08-03T09:13:26.913Z,60.72
2022-08-03T09:16:29.738Z,64.40
2022-08-03T09:19:34.879Z,59.00
2022-08-03T09:22:52.938Z,56.10
2022-08-03T09:26:00.068Z,60.75
2022-08-03T09:29:16.784Z,77.33
2022-08-03T09:32:22.253Z,79.75
2022-08-03T09:35:51.588Z,70.22
2022-08-03T09:39:12.944Z,74.35
2022-08-03T09:42:18.386Z,72.28
2022-08-03T09:45:30.040Z,69.05
2022-08-03T09:48:37.368Z,73.40
2022-08-03T09:52:32.566Z,82.55
2022-08-03T09:56:31.642Z,128.15
2022-08-03T09:58:47.115Z,145.32
2022-08-03T10:01:49.970Z,137.25
2022-08-03T10:04:54.238Z,131.20
2022-08-03T10:07:56.949Z,121.25
2022-08-03T10:11:00.658Z,117.07
2022-08-03T10:14:08.408Z,120.30
2022-08-03T10:17:11.438Z,121.73
2022-08-03T10:20:15.074Z,143.45
2022-08-03T10:23:20.131Z,116.10
2022-08-03T10:26:26.314Z,113.78
2022-08-03T10:29:33.105Z,115.62
2022-08-03T10:32:43.111Z,132.25
2022-08-03T10:35:48.815Z,125.75
2022-08-03T10:38:53.758Z,120.37
2022-08-03T10:42:02.746Z,115.90
2022-08-03T10:45:09.490Z,121.82
2022-08-03T10:48:14.030Z,130.52
2022-08-03T10:51:19.260Z,121.07
2022-08-03T10:54:37.579Z,121.70
2022-08-03T10:57:58.218Z,115.47
2022-08-03T11:01:02.222Z,128.02
2022-08-03T11:04:09.586Z,121.85
2022-08-03T11:07:24.102Z,121.70
2022-08-03T11:10:31.980Z,123.60
2022-08-03T11:13:35.186Z,117.67
2022-08-03T11:16:45.302Z,130.05
2022-08-03T11:19:56.800Z,116.37
2022-08-03T11:23:01.788Z,125.05
2022-08-03T11:26:16.084Z,126.15
2022-08-03T11:29:30.519Z,125.57
2022-08-03T11:32:40.554Z,116.15
2022-08-03T11:36:01.480Z,112.10
2022-08-03T11:39:16.857Z,114.65
2022-08-03T11:42:31.752Z,125.38
2022-08-03T11:45:35.916Z,111.05
2022-08-03T11:48:43.137Z,114.97
2022-08-03T11:51:46.143Z,120.53
2022-08-03T11:54:56.647Z,115.12
2022-08-03T11:59:01.553Z,119.20
2022-08-03T12:01:25.753Z,118.93
2022-08-03T12:04:28.773Z,117.18
2022-08-03T12:08:03.616Z,131.37
2022-08-03T12:10:56.637Z,115.15
2022-08-03T12:14:50.785Z,113.12
2022-08-03T12:17:22.904Z,113.22
2022-08-03T12:20:31.509Z,108.70
2022-08-03T12:23:39.829Z,113.80
2022-08-03T12:26:58.489Z,105.78
2022-08-03T12:30:03.687Z,103.78
2022-08-03T12:33:33.670Z,111.85
2022-08-03T12:36:38.584Z,107.30
2022-08-03T12:40:02.660Z,114.32
2022-08-03T12:43:12.775Z,114.20
2022-08-03T12:46:17.587Z,119.20
2022-08-03T12:49:21.277Z,120.37
2022-08-03T12:52:24.137Z,117.43
2022-08-03T12:55:57.192Z,118.37
2022-08-03T12:58:59.069Z,118.90
2022-08-03T13:02:09.534Z,121.30
2022-08-03T13:05:14.422Z,108.45
2022-08-03T13:08:23.576Z,108.03
2022-08-03T13:11:50.635Z,113.57
2022-08-03T13:15:00.569Z,116.07
2022-08-03T13:18:23.288Z,112.40
2022-08-03T13:21:26.500Z,116.05
2022-08-03T13:24:30.534Z,120.93
2022-08-03T13:28:03.128Z,121.50
2022-08-03T13:31:08.255Z,115.50
2022-08-03T13:34:11.360Z,119.03
2022-08-03T13:37:14.793Z,106.03
2022-08-03T13:40:23.621Z,118.03
2022-08-03T13:43:33.051Z,116.78
2022-08-03T13:46:36.262Z,118.03
2022-08-03T13:49:39.712Z,107.20
2022-08-03T13:52:42.935Z,111.18
2022-08-03T13:55:45.939Z,111.00
2022-08-03T13:58:49.263Z,106.97
2022-08-03T14:01:55.751Z,116.05
2022-08-03T14:04:59.068Z,107.47
2022-08-03T14:08:05.321Z,107.95
2022-08-03T14:11:08.717Z,109.25
2022-08-03T14:14:11.824Z,104.25
2022-08-03T14:17:16.518Z,100.95
2022-08-03T14:20:37.177Z,102.60
2022-08-03T14:23:42.874Z,113.57
2022-08-03T14:26:47.558Z,113.43
2022-08-03T14:29:51.590Z,99.05
2022-08-03T14:32:56.875Z,119.55
2022-08-03T14:36:04.402Z,110.03
2022-08-03T14:39:07.186Z,116.72
2022-08-03T15:44:50.570Z,113.12
2022-08-03T15:47:53.662Z,116.65
2022-08-03T15:50:56.537Z,113.85
2022-08-03T15:53:59.549Z,112.72
2022-08-03T15:57:02.216Z,112.62
2022-08-03T16:00:08.297Z,106.18
2022-08-03T16:03:28.368Z,115.15
2022-08-03T16:06:47.197Z,114.15
2022-08-03T16:09:50.229Z,117.95
2022-08-03T16:12:52.922Z,104.10
2022-08-03T16:15:56.063Z,107.93
2022-08-03T16:18:58.838Z,107.60
2022-08-03T16:22:10.776Z,116.47
2022-08-03T16:25:17.380Z,111.35
2022-08-03T16:28:20.975Z,120.20
2022-08-03T16:31:27.191Z,110.07
2022-08-03T16:34:30.256Z,104.57
2022-08-03T16:37:38.519Z,115.43
2022-08-03T16:40:43.067Z,103.72
2022-08-03T16:43:45.889Z,113.70
2022-08-03T16:46:48.845Z,102.75
2022-08-03T16:49:56.057Z,104.82
2022-08-03T16:52:59.585Z,101.93
2022-08-03T16:56:06.718Z,101.28
2022-08-03T16:59:13.383Z,108.87
2022-08-03T17:02:26.151Z,100.80
2022-08-03T17:05:43.787Z,105.35
2022-08-03T17:08:55.068Z,99.20
2022-08-03T17:11:58.747Z,99.07
2022-08-03T17:15:04.255Z,101.45
2022-08-03T17:18:11.908Z,99.30
2022-08-03T17:21:21.185Z,103.35
2022-08-03T17:24:31.200Z,104.25
2022-08-03T17:28:50.492Z,111.22
2022-08-03T17:31:23.495Z,106.93
2022-08-03T17:34:35.377Z,104.93
2022-08-03T17:37:57.473Z,109.20
2022-08-03T17:41:01.983Z,103.25
